Time;durP1;ratioP1;P1;durP2;ratioP2;P2;SDS_P1;SDS_P2;PMS_P1;PMS_P2;Temp;Humidity;BMP_temperature;BMP_pressure;BME280_temperature;BME280_humidity;BME280_pressure;Samples;Min_cycle;Max_cycle;Signal;HPM_P1;HPM_P2
2023/08/29 00:00:40;;;;;;;4.03;1.08;;;16.80;99.90;;;;;;5022766;28;20348;-75
2023/08/29 00:03:27;;;;;;;3.55;1.35;;;16.80;99.90;;;;;;5022346;28;20037;-75
2023/08/29 00:06:13;;;;;;;3.22;1.10;;;16.80;99.90;;;;;;5037027;28;20037;-75
2023/08/29 00:08:59;;;;;;;3.30;1.00;;;16.70;99.90;;;;;;5016712;28;20045;-75
2023/08/29 00:11:45;;;;;;;2.75;1.02;;;16.70;99.90;;;;;;5020333;28;20048;-75
2023/08/29 00:14:31;;;;;;;2.92;1.30;;;16.70;99.90;;;;;;5026603;28;20378;-75
2023/08/29 00:17:17;;;;;;;3.47;1.10;;;16.60;99.90;;;;;;5021878;28;20045;-75
2023/08/29 00:20:04;;;;;;;4.03;1.52;;;16.60;99.90;;;;;;5040867;28;20135;-75
2023/08/29 00:22:50;;;;;;;2.53;1.00;;;16.60;99.90;;;;;;5033579;28;20081;-75
2023/08/29 00:25:36;;;;;;;2.78;1.08;;;16.50;99.90;;;;;;5023582;28;20106;-75
2023/08/29 00:28:23;;;;;;;3.38;1.30;;;16.50;99.90;;;;;;5039289;28;20118;-75
2023/08/29 00:31:10;;;;;;;3.13;1.60;;;16.50;99.90;;;;;;5041072;28;20045;-75
2023/08/29 00:33:56;;;;;;;2.75;1.23;;;16.50;99.90;;;;;;5031622;28;20662;-75
2023/08/29 00:36:42;;;;;;;3.40;1.45;;;16.50;99.90;;;;;;5047068;28;20359;-75
2023/08/29 00:39:28;;;;;;;4.55;2.38;;;16.50;99.90;;;;;;5037272;28;20045;-75
2023/08/29 00:42:14;;;;;;;3.00;1.15;;;16.50;99.90;;;;;;5015018;28;20052;-75
2023/08/29 00:45:00;;;;;;;2.28;1.10;;;16.50;99.90;;;;;;5036461;28;20072;-75
2023/08/29 00:47:46;;;;;;;4.40;1.23;;;16.50;99.90;;;;;;5033539;28;20041;-75
2023/08/29 00:50:32;;;;;;;3.25;1.20;;;16.50;99.90;;;;;;5024406;28;20823;-75
2023/08/29 00:53:18;;;;;;;6.00;1.35;;;16.50;99.90;;;;;;5032547;28;20064;-75
2023/08/29 00:56:04;;;;;;;1.63;0.90;;;16.50;99.90;;;;;;5032148;28;20040;-75
2023/08/29 00:58:50;;;;;;;3.10;1.30;;;16.50;99.90;;;;;;5026955;28;20107;-75
2023/08/29 01:01:36;;;;;;;6.03;1.45;;;16.50;99.90;;;;;;5030891;28;20034;-75
2023/08/29 01:04:22;;;;;;;3.95;1.30;;;16.40;99.90;;;;;;5016782;28;20043;-75
2023/08/29 01:07:08;;;;;;;2.75;1.20;;;16.40;99.90;;;;;;5021434;28;20041;-75
2023/08/29 01:09:54;;;;;;;5.00;1.40;;;16.40;99.90;;;;;;5016221;28;20052;-75
2023/08/29 01:12:54;;;;;;;3.30;1.45;;;16.30;99.90;;;;;;5031283;28;20480;-73
2023/08/29 01:15:40;;;;;;;1.92;1.33;;;16.30;99.90;;;;;;5037373;28;20048;-75
2023/08/29 01:18:27;;;;;;;3.03;1.10;;;16.40;99.90;;;;;;5020438;28;20057;-75
2023/08/29 01:21:26;;;;;;;3.40;1.23;;;16.30;99.90;;;;;;5030685;28;20037;-74
2023/08/29 01:24:18;;;;;;;2.67;1.02;;;16.30;99.90;;;;;;5042367;28;20037;-74
2023/08/29 01:27:04;;;;;;;2.15;1.30;;;16.30;99.90;;;;;;5021263;28;20029;-75
2023/08/29 01:29:50;;;;;;;2.88;1.02;;;16.30;99.90;;;;;;5031684;28;20041;-75
2023/08/29 01:32:36;;;;;;;3.60;1.30;;;16.30;99.90;;;;;;5023403;28;20047;-75
2023/08/29 01:35:22;;;;;;;3.80;1.80;;;16.30;99.90;;;;;;5013390;28;20173;-75
2023/08/29 01:38:08;;;;;;;5.68;1.90;;;16.30;99.90;;;;;;5028185;28;20142;-75
2023/08/29 01:40:54;;;;;;;3.47;1.48;;;16.20;99.90;;;;;;5040275;28;20509;-76
2023/08/29 01:43:40;;;;;;;3.47;1.38;;;16.30;99.90;;;;;;5025341;28;20067;-74
2023/08/29 01:46:26;;;;;;;2.88;1.50;;;16.30;99.90;;;;;;5023881;28;20033;-75
2023/08/29 01:49:12;;;;;;;3.80;1.35;;;16.30;99.90;;;;;;5032938;28;20071;-76
2023/08/29 01:51:59;;;;;;;4.55;1.38;;;16.30;99.90;;;;;;5033883;28;20059;-74
2023/08/29 01:54:45;;;;;;;4.03;1.42;;;16.20;99.90;;;;;;5026384;28;20405;-74
2023/08/29 01:57:31;;;;;;;3.35;1.50;;;16.20;99.90;;;;;;5048129;28;20041;-75
2023/08/29 02:00:17;;;;;;;3.00;1.50;;;16.20;99.90;;;;;;5046577;28;20045;-75
2023/08/29 02:03:03;;;;;;;3.90;1.67;;;16.20;99.90;;;;;;5031505;28;20449;-75
2023/08/29 02:05:49;;;;;;;4.85;1.55;;;16.20;99.90;;;;;;5049201;28;20033;-75
2023/08/29 02:08:36;;;;;;;5.43;1.38;;;16.20;99.90;;;;;;5010275;28;20041;-75
2023/08/29 02:11:22;;;;;;;3.63;1.40;;;16.20;99.90;;;;;;5047815;28;20073;-75
2023/08/29 02:14:10;;;;;;;4.03;1.33;;;16.10;99.90;;;;;;5043827;28;20045;-75
2023/08/29 02:16:56;;;;;;;5.70;1.50;;;16.20;99.90;;;;;;5007415;28;20065;-75
2023/08/29 02:19:42;;;;;;;4.07;1.40;;;16.20;99.90;;;;;;5035539;28;20053;-75
2023/08/29 02:22:30;;;;;;;5.18;1.75;;;16.10;99.90;;;;;;5042611;28;20041;-75
2023/08/29 02:25:16;;;;;;;6.45;1.77;;;16.10;99.90;;;;;;5018434;28;20374;-75
2023/08/29 02:28:02;;;;;;;3.03;1.73;;;16.10;99.90;;;;;;5018598;28;20032;-74
2023/08/29 02:30:48;;;;;;;2.08;1.17;;;16.10;99.90;;;;;;5017486;28;20053;-75
2023/08/29 02:33:35;;;;;;;4.05;1.67;;;16.10;99.90;;;;;;5021526;28;20067;-75
2023/08/29 02:36:23;;;;;;;3.22;1.60;;;16.10;99.90;;;;;;5037191;28;20056;-75
2023/08/29 02:39:10;;;;;;;4.95;1.33;;;16.10;99.90;;;;;;5048395;28;20041;-75
2023/08/29 02:41:56;;;;;;;5.35;1.80;;;16.10;99.90;;;;;;5030652;28;20426;-75
2023/08/29 02:44:42;;;;;;;4.57;1.35;;;16.10;99.90;;;;;;5034520;28;20032;-75
2023/08/29 02:47:28;;;;;;;3.40;1.35;;;16.10;99.90;;;;;;5031260;28;20489;-75
2023/08/29 02:50:14;;;;;;;4.38;1.60;;;16.10;99.90;;;;;;5005587;28;20579;-75
2023/08/29 02:53:00;;;;;;;2.53;1.40;;;16.00;99.90;;;;;;5025039;28;20044;-75
2023/08/29 02:55:50;;;;;;;3.30;1.45;;;16.00;99.90;;;;;;5040323;28;20033;-75
2023/08/29 02:58:36;;;;;;;4.00;1.60;;;16.00;99.90;;;;;;5029636;28;20378;-74
2023/08/29 03:01:22;;;;;;;3.38;1.50;;;16.00;99.90;;;;;;5033903;28;20470;-75
2023/08/29 03:04:08;;;;;;;3.88;1.40;;;15.90;99.90;;;;;;5045771;28;20049;-75
2023/08/29 03:06:56;;;;;;;3.65;1.50;;;15.90;99.90;;;;;;5018092;28;20142;-75
2023/08/29 03:09:43;;;;;;;3.75;1.65;;;15.90;99.90;;;;;;5028608;28;20041;-75
2023/08/29 03:12:29;;;;;;;5.05;1.50;;;15.90;99.90;;;;;;5032404;28;20037;-75
2023/08/29 03:15:15;;;;;;;3.83;1.50;;;15.80;99.90;;;;;;5019064;28;20426;-76
2023/08/29 03:18:03;;;;;;;5.78;1.88;;;15.70;99.90;;;;;;5030769;28;20053;-75
2023/08/29 03:20:49;;;;;;;3.53;1.50;;;15.70;99.90;;;;;;5033123;28;20099;-75
2023/08/29 03:23:35;;;;;;;2.40;1.70;;;15.80;99.90;;;;;;5027354;28;20116;-75
2023/08/29 03:26:21;;;;;;;3.92;2.00;;;15.80;99.90;;;;;;5019603;28;20412;-74
2023/08/29 03:29:07;;;;;;;1.90;1.40;;;15.80;99.90;;;;;;5027846;28;20037;-75
2023/08/29 03:31:53;;;;;;;4.15;1.55;;;15.80;99.90;;;;;;5026339;28;20359;-75
2023/08/29 03:34:39;;;;;;;4.25;1.75;;;15.80;99.90;;;;;;5017094;28;20128;-75
2023/08/29 03:37:25;;;;;;;6.75;1.70;;;15.80;99.90;;;;;;5043566;28;20045;-75
2023/08/29 03:40:11;;;;;;;3.05;1.67;;;15.80;99.90;;;;;;5033300;28;20046;-75
2023/08/29 03:42:57;;;;;;;5.07;1.70;;;15.70;99.90;;;;;;5019989;28;20339;-75
2023/08/29 03:45:43;;;;;;;3.17;1.85;;;15.70;99.90;;;;;;5030409;28;20036;-75
2023/08/29 03:48:30;;;;;;;3.88;1.90;;;15.70;99.90;;;;;;5016473;28;20565;-75
2023/08/29 03:51:17;;;;;;;5.07;1.95;;;15.70;99.90;;;;;;5044548;28;20421;-75
2023/08/29 03:54:03;;;;;;;4.28;2.22;;;15.60;99.90;;;;;;5051313;28;20527;-75
2023/08/29 03:56:49;;;;;;;3.70;1.65;;;15.60;99.90;;;;;;5034632;28;20060;-75
2023/08/29 03:59:35;;;;;;;4.57;1.83;;;15.60;99.90;;;;;;5021118;28;20053;-75
2023/08/29 04:02:21;;;;;;;3.88;1.88;;;15.60;99.90;;;;;;5020290;28;20040;-75
2023/08/29 04:05:14;;;;;;;3.92;2.10;;;15.60;99.90;;;;;;5047550;28;20373;-75
2023/08/29 04:08:00;;;;;;;4.22;1.85;;;15.60;99.90;;;;;;5022454;28;20465;-75
2023/08/29 04:10:46;;;;;;;3.88;2.10;;;15.60;99.90;;;;;;5046415;28;20631;-75
2023/08/29 04:13:33;;;;;;;3.50;1.70;;;15.60;99.90;;;;;;5054802;28;20040;-75
2023/08/29 04:16:19;;;;;;;5.63;1.92;;;15.50;99.90;;;;;;5018331;28;20124;-75
2023/08/29 04:19:05;;;;;;;5.55;2.08;;;15.50;99.90;;;;;;5049860;28;20124;-75
2023/08/29 04:21:51;;;;;;;5.05;1.92;;;15.50;99.90;;;;;;5045691;28;20045;-75
2023/08/29 04:24:37;;;;;;;3.05;1.92;;;15.50;99.90;;;;;;5038319;28;20036;-75
2023/08/29 04:27:23;;;;;;;6.00;2.10;;;15.40;99.90;;;;;;5020269;28;20065;-74
2023/08/29 04:30:09;;;;;;;3.50;1.85;;;15.40;99.90;;;;;;5033593;28;20045;-74
2023/08/29 04:32:56;;;;;;;3.92;1.77;;;15.40;99.90;;;;;;5039644;28;20080;-75
2023/08/29 04:35:42;;;;;;;4.18;2.10;;;15.40;99.90;;;;;;5019930;28;20041;-75
2023/08/29 04:38:31;;;;;;;3.95;2.13;;;15.40;99.90;;;;;;5039656;28;20381;-75
2023/08/29 04:41:17;;;;;;;4.40;2.10;;;15.40;99.90;;;;;;5032358;28;20042;-75
2023/08/29 04:44:03;;;;;;;4.22;2.10;;;15.40;99.90;;;;;;5013544;28;20044;-75
2023/08/29 04:46:49;;;;;;;5.50;2.28;;;15.40;99.90;;;;;;5008082;28;20044;-75
2023/08/29 04:49:35;;;;;;;5.90;2.47;;;15.30;99.90;;;;;;5009292;28;20080;-74
2023/08/29 04:52:21;;;;;;;4.28;2.28;;;15.30;99.90;;;;;;5024881;28;20737;-74
2023/08/29 04:55:07;;;;;;;3.75;2.25;;;15.30;99.90;;;;;;5025932;28;20107;-75
2023/08/29 04:57:56;;;;;;;6.78;2.83;;;15.30;99.90;;;;;;5029812;28;20041;-75
2023/08/29 05:00:42;;;;;;;8.18;2.58;;;15.30;99.90;;;;;;5025680;28;20481;-74
2023/08/29 05:03:28;;;;;;;3.67;2.00;;;15.30;99.90;;;;;;5031415;28;20044;-75
2023/08/29 05:06:14;;;;;;;3.97;2.30;;;15.30;99.90;;;;;;5036373;28;20080;-74
2023/08/29 05:09:00;;;;;;;3.20;2.10;;;15.40;99.90;;;;;;5025135;28;20409;-74
2023/08/29 05:11:46;;;;;;;6.65;2.80;;;15.30;99.90;;;;;;5011976;28;20033;-74
2023/08/29 05:14:32;;;;;;;4.82;2.40;;;15.30;99.90;;;;;;5052392;28;20048;-74
2023/08/29 05:17:18;;;;;;;3.67;2.35;;;15.30;99.90;;;;;;5030456;28;20051;-76
2023/08/29 05:20:06;;;;;;;4.43;2.25;;;15.30;99.90;;;;;;5015804;28;20045;-74
2023/08/29 05:22:52;;;;;;;3.58;2.17;;;15.30;99.90;;;;;;5040450;28;20044;-75
2023/08/29 05:25:39;;;;;;;3.35;2.17;;;15.30;99.90;;;;;;5013076;28;20042;-75
2023/08/29 05:28:25;;;;;;;5.15;2.15;;;15.30;99.90;;;;;;5036592;28;20043;-75
2023/08/29 05:31:11;;;;;;;5.15;2.42;;;15.30;99.90;;;;;;5045101;28;20056;-74
2023/08/29 05:33:57;;;;;;;9.27;2.80;;;15.30;99.90;;;;;;5021602;28;20136;-75
2023/08/29 05:36:43;;;;;;;4.10;2.47;;;15.30;99.90;;;;;;5035650;28;20079;-74
2023/08/29 05:39:29;;;;;;;4.90;2.60;;;15.30;99.90;;;;;;5032089;28;20052;-74
2023/08/29 05:42:15;;;;;;;4.85;2.17;;;15.30;99.90;;;;;;5021304;28;20046;-75
2023/08/29 05:45:02;;;;;;;4.40;2.30;;;15.30;99.90;;;;;;5020513;28;20033;-74
2023/08/29 05:47:48;;;;;;;5.75;2.28;;;15.40;99.90;;;;;;5021450;28;20041;-74
2023/08/29 05:50:34;;;;;;;4.72;2.22;;;15.30;99.90;;;;;;5034009;28;20038;-76
2023/08/29 05:53:20;;;;;;;4.68;2.00;;;15.40;99.90;;;;;;5034318;28;20049;-74
2023/08/29 05:56:06;;;;;;;3.92;2.35;;;15.30;99.90;;;;;;5022724;28;20041;-75
2023/08/29 05:58:52;;;;;;;5.05;2.33;;;15.30;99.90;;;;;;5031082;28;20040;-75
2023/08/29 06:01:38;;;;;;;4.95;2.30;;;15.30;99.90;;;;;;5034777;28;20119;-74
2023/08/29 06:04:24;;;;;;;5.28;2.30;;;15.30;99.90;;;;;;5036359;28;20125;-74
2023/08/29 06:07:10;;;;;;;4.55;2.30;;;15.30;99.90;;;;;;5022060;28;20063;-75
2023/08/29 06:09:56;;;;;;;6.93;2.20;;;15.30;99.90;;;;;;5042531;28;20037;-74
2023/08/29 06:12:42;;;;;;;3.90;2.53;;;15.40;99.90;;;;;;5007580;28;20045;-74
2023/08/29 06:15:28;;;;;;;4.28;2.83;;;15.40;99.90;;;;;;5049495;28;20388;-73
2023/08/29 06:18:14;;;;;;;6.10;2.50;;;15.30;99.90;;;;;;5017182;28;20462;-73
2023/08/29 06:21:02;;;;;;;6.47;2.47;;;15.30;99.90;;;;;;5031326;28;20041;-72
2023/08/29 06:23:48;;;;;;;7.22;2.60;;;15.30;99.90;;;;;;5011694;28;20041;-73
2023/08/29 06:26:34;;;;;;;3.85;2.35;;;15.30;99.90;;;;;;5049653;28;20194;-72
2023/08/29 06:29:20;;;;;;;7.35;2.88;;;15.30;99.90;;;;;;5034526;28;20124;-72
2023/08/29 06:32:06;;;;;;;4.63;2.25;;;15.30;99.90;;;;;;5041725;28;20551;-72
2023/08/29 06:34:52;;;;;;;4.25;2.22;;;15.30;99.90;;;;;;5045738;28;20090;-72
2023/08/29 06:37:39;;;;;;;4.82;2.78;;;15.30;99.90;;;;;;5030979;28;20041;-73
2023/08/29 06:40:25;;;;;;;5.20;2.60;;;15.30;99.90;;;;;;5030139;28;20059;-73
2023/08/29 06:43:11;;;;;;;5.38;2.47;;;15.30;99.90;;;;;;5025782;28;20467;-72
2023/08/29 06:45:57;;;;;;;5.80;2.60;;;15.30;99.90;;;;;;5037606;28;20036;-72
2023/08/29 06:48:45;;;;;;;7.20;2.65;;;15.30;99.90;;;;;;5034859;28;20096;-72
2023/08/29 06:51:31;;;;;;;6.80;2.50;;;15.30;99.90;;;;;;5038485;28;20036;-72
2023/08/29 06:54:17;;;;;;;6.15;2.50;;;15.30;99.90;;;;;;5020659;28;20546;-71
2023/08/29 06:57:03;;;;;;;6.70;2.60;;;15.30;99.90;;;;;;5019379;28;20041;-72
2023/08/29 06:59:49;;;;;;;7.57;2.60;;;15.30;99.90;;;;;;5020867;28;20052;-73
2023/08/29 07:02:35;;;;;;;4.55;2.60;;;15.30;99.90;;;;;;5039245;28;20033;-72
2023/08/29 07:05:24;;;;;;;6.05;2.55;;;15.30;99.90;;;;;;5026353;28;20041;-72
2023/08/29 07:08:10;;;;;;;9.70;2.70;;;15.40;99.90;;;;;;5013607;28;20033;-75
2023/08/29 07:10:57;;;;;;;4.00;2.55;;;15.30;99.90;;;;;;5026908;28;20044;-75
2023/08/29 07:13:43;;;;;;;6.97;2.70;;;15.30;99.90;;;;;;5034469;28;20056;-74
2023/08/29 07:16:31;;;;;;;4.93;2.95;;;15.30;99.90;;;;;;5031372;28;20288;-74
2023/08/29 07:19:18;;;;;;;5.57;3.05;;;15.30;99.90;;;;;;5030492;28;20049;-74
2023/08/29 07:22:04;;;;;;;5.82;3.17;;;15.20;99.90;;;;;;5015161;28;20049;-74
2023/08/29 07:24:50;;;;;;;4.78;2.85;;;15.10;99.90;;;;;;5015075;28;20626;-74
2023/08/29 07:27:37;;;;;;;5.60;2.92;;;15.10;99.90;;;;;;5036007;28;20099;-74
2023/08/29 07:30:23;;;;;;;7.13;3.20;;;15.10;99.90;;;;;;5021446;28;20043;-74
2023/08/29 07:33:13;;;;;;;6.10;3.00;;;15.10;99.90;;;;;;5016510;28;20151;-75
2023/08/29 07:36:00;;;;;;;5.55;3.30;;;15.10;99.90;;;;;;5016262;28;20068;-74
2023/08/29 07:38:47;;;;;;;6.45;3.15;;;15.10;99.90;;;;;;5017811;28;20431;-72
2023/08/29 07:41:33;;;;;;;5.63;3.28;;;15.20;99.90;;;;;;5043843;28;20060;-72
2023/08/29 07:44:19;;;;;;;8.43;3.40;;;15.30;99.90;;;;;;5023328;28;20033;-72
2023/08/29 07:47:05;;;;;;;9.88;3.42;;;15.30;99.90;;;;;;5038414;28;20038;-72
2023/08/29 07:49:51;;;;;;;4.72;3.20;;;15.30;99.90;;;;;;5041243;28;20148;-73
2023/08/29 07:52:37;;;;;;;7.18;3.17;;;15.30;99.90;;;;;;5037693;28;20045;-73
2023/08/29 07:55:23;;;;;;;7.45;3.00;;;15.40;99.90;;;;;;5044824;28;20041;-72
2023/08/29 07:58:09;;;;;;;6.20;2.88;;;15.40;99.90;;;;;;5017132;28;20045;-73
2023/08/29 08:00:55;;;;;;;6.10;3.17;;;15.40;99.90;;;;;;5020137;28;20037;-72
2023/08/29 08:03:41;;;;;;;5.88;3.13;;;15.30;99.90;;;;;;5033013;28;20037;-73
2023/08/29 08:06:27;;;;;;;5.88;3.30;;;15.40;99.90;;;;;;5041232;28;20038;-72
2023/08/29 08:09:14;;;;;;;5.72;3.45;;;15.50;99.90;;;;;;5028036;28;20196;-72
2023/08/29 08:12:01;;;;;;;7.63;3.47;;;15.40;99.90;;;;;;5015933;28;20459;-72
2023/08/29 08:14:47;;;;;;;6.55;3.58;;;15.40;99.90;;;;;;5030869;28;20041;-73
2023/08/29 08:17:34;;;;;;;10.57;3.15;;;15.30;99.90;;;;;;5005231;28;20064;-72
2023/08/29 08:20:22;;;;;;;5.70;3.50;;;15.40;99.90;;;;;;5041232;28;20128;-74
2023/08/29 08:23:09;;;;;;;6.75;3.10;;;15.40;99.90;;;;;;5031005;28;20048;-73
2023/08/29 08:25:58;;;;;;;5.30;3.45;;;15.60;99.90;;;;;;5003332;28;20041;-75
2023/08/29 08:28:49;;;;;;;5.68;3.20;;;15.70;99.90;;;;;;5027859;28;20044;-74
2023/08/29 08:31:37;;;;;;;5.57;3.10;;;15.80;99.90;;;;;;5024512;28;20110;-74
2023/08/29 08:34:24;;;;;;;4.60;3.05;;;15.80;99.90;;;;;;5039226;28;20358;-73
2023/08/29 08:37:10;;;;;;;5.18;3.17;;;15.90;99.90;;;;;;5019063;28;20041;-73
2023/08/29 08:39:56;;;;;;;6.97;3.38;;;16.00;99.90;;;;;;5035397;28;20474;-76
2023/08/29 08:42:44;;;;;;;5.88;3.70;;;16.10;99.90;;;;;;5039626;28;20037;-73
2023/08/29 08:45:30;;;;;;;9.50;3.38;;;16.10;99.90;;;;;;5033223;28;20092;-74
2023/08/29 08:48:16;;;;;;;4.03;2.55;;;16.20;99.90;;;;;;5029162;28;20040;-74
2023/08/29 08:51:09;;;;;;;5.90;3.33;;;16.20;99.90;;;;;;5036514;28;20549;-74
2023/08/29 08:53:57;;;;;;;6.93;3.35;;;16.20;99.90;;;;;;5047411;28;20057;-75
2023/08/29 08:56:43;;;;;;;6.35;2.85;;;16.20;99.90;;;;;;5038357;28;20222;-76
2023/08/29 08:59:29;;;;;;;5.40;3.22;;;16.30;99.90;;;;;;5029184;28;20056;-76
2023/08/29 09:02:15;;;;;;;7.28;3.38;;;16.30;99.90;;;;;;5037129;28;20128;-75
2023/08/29 09:05:01;;;;;;;5.55;3.10;;;16.30;99.90;;;;;;5020774;28;20148;-76
2023/08/29 09:07:47;;;;;;;4.47;3.10;;;16.40;99.90;;;;;;5037750;28;20033;-73
2023/08/29 09:10:35;;;;;;;6.40;3.35;;;16.50;99.90;;;;;;5022095;28;20055;-73
2023/08/29 09:13:22;;;;;;;5.00;3.60;;;16.50;99.90;;;;;;5010957;28;20095;-73
2023/08/29 09:16:08;;;;;;;4.13;2.75;;;16.50;99.90;;;;;;5005820;28;20592;-73
2023/08/29 09:18:55;;;;;;;4.38;2.88;;;16.50;99.90;;;;;;5011835;28;20072;-73
2023/08/29 09:21:44;;;;;;;4.35;3.05;;;16.60;99.90;;;;;;5012094;28;20037;-73
2023/08/29 09:24:34;;;;;;;6.72;3.22;;;16.70;99.90;;;;;;5018848;28;20040;-72
2023/08/29 09:27:20;;;;;;;5.20;2.33;;;16.80;99.90;;;;;;5028642;28;20036;-73
2023/08/29 09:30:08;;;;;;;6.40;3.42;;;16.90;99.90;;;;;;5021112;28;20045;-73
2023/08/29 09:32:54;;;;;;;4.95;3.08;;;16.90;99.90;;;;;;5018498;28;20045;-73
2023/08/29 09:35:40;;;;;;;5.22;2.80;;;16.90;99.90;;;;;;5044694;28;20053;-73
2023/08/29 09:38:28;;;;;;;4.72;2.42;;;17.00;99.90;;;;;;5016767;28;20090;-73
2023/08/29 09:41:14;;;;;;;5.03;3.00;;;17.10;99.90;;;;;;5010563;28;20045;-73
2023/08/29 09:44:00;;;;;;;2.92;2.17;;;17.20;99.90;;;;;;5032468;28;20052;-73
2023/08/29 09:46:46;;;;;;;6.03;3.05;;;17.20;99.90;;;;;;5007330;28;20037;-72
2023/08/29 09:49:48;;;;;;;4.85;2.78;;;17.30;99.90;;;;;;5022036;28;20128;-72
2023/08/29 09:52:34;;;;;;;7.00;2.55;;;17.40;99.90;;;;;;5026758;28;20041;-73
2023/08/29 09:55:20;;;;;;;5.00;2.63;;;17.40;99.90;;;;;;5044299;28;20432;-76
2023/08/29 09:58:06;;;;;;;4.32;2.13;;;17.50;99.90;;;;;;5024584;28;20473;-76
2023/08/29 10:00:52;;;;;;;4.25;2.42;;;17.40;99.90;;;;;;5024882;28;20045;-76
2023/08/29 10:03:38;;;;;;;4.88;2.45;;;17.50;99.90;;;;;;5032797;28;20490;-76
2023/08/29 10:06:24;;;;;;;8.80;3.20;;;17.60;99.90;;;;;;5014925;28;20087;-76
2023/08/29 10:09:10;;;;;;;3.50;2.50;;;17.40;99.90;;;;;;5037346;28;20072;-76
2023/08/29 10:11:56;;;;;;;4.45;2.60;;;17.60;99.90;;;;;;5039883;28;20496;-76
2023/08/29 10:14:42;;;;;;;7.15;2.47;;;17.70;99.90;;;;;;5016810;28;20095;-74
2023/08/29 10:17:28;;;;;;;5.25;2.78;;;17.60;99.90;;;;;;5033863;28;20060;-74
2023/08/29 10:20:14;;;;;;;4.32;2.00;;;17.60;99.90;;;;;;5025352;28;20053;-73
2023/08/29 10:23:00;;;;;;;4.43;2.30;;;17.70;99.90;;;;;;5018813;28;20188;-74
2023/08/29 10:25:48;;;;;;;3.03;1.52;;;17.90;99.90;;;;;;5031443;28;20041;-74
2023/08/29 10:28:34;;;;;;;;;;;17.90;99.90;;;;;;5032480;28;20065;-74
2023/08/29 10:31:20;;;;;;;4.90;1.70;;;18.10;99.90;;;;;;5042944;28;19924;-74
2023/08/29 10:34:06;;;;;;;6.88;1.83;;;18.10;99.90;;;;;;5015584;28;20041;-73
2023/08/29 10:36:52;;;;;;;5.30;1.98;;;18.10;99.90;;;;;;5028084;28;20072;-72
2023/08/29 10:39:39;;;;;;;6.32;2.08;;;18.20;99.90;;;;;;5030895;28;20084;-73
2023/08/29 10:42:26;;;;;;;2.60;1.53;;;18.20;99.90;;;;;;5023031;28;20159;-72
2023/08/29 10:45:13;;;;;;;5.18;1.63;;;18.20;99.90;;;;;;5033407;28;20748;-73
2023/08/29 10:47:59;;;;;;;3.35;1.58;;;18.30;99.90;;;;;;5036877;28;20037;-72
2023/08/29 10:50:47;;;;;;;2.97;1.50;;;18.30;99.90;;;;;;5035823;28;20045;-72
2023/08/29 10:53:35;;;;;;;3.13;1.35;;;18.30;99.90;;;;;;5012800;28;20048;-72
2023/08/29 10:56:24;;;;;;;2.17;1.30;;;18.40;99.90;;;;;;5029753;28;20441;-72
2023/08/29 10:59:33;;;;;;;3.60;1.33;;;18.40;99.90;;;;;;5017765;28;20055;-72
2023/08/29 11:02:27;;;;;;;2.20;1.20;;;18.30;99.90;;;;;;5029742;28;20037;-72
2023/08/29 11:05:14;;;;;;;4.68;1.35;;;18.30;99.90;;;;;;5015596;28;20138;-73
2023/08/29 11:08:22;;;;;;;2.60;1.40;;;18.40;99.90;;;;;;5008000;28;20045;-73
2023/08/29 11:11:14;;;;;;;;;;;18.50;99.90;;;;;;5035099;28;20135;-72
2023/08/29 11:14:01;;;;;;;3.85;1.52;;;18.50;99.90;;;;;;5029913;28;19920;-72
2023/08/29 11:17:09;;;;;;;3.05;1.42;;;18.40;99.90;;;;;;5033862;28;20155;-72
2023/08/29 11:19:57;;;;;;;4.93;1.67;;;18.30;99.90;;;;;;5028324;28;20045;-72
2023/08/29 11:22:47;;;;;;;2.78;1.10;;;18.40;99.90;;;;;;5033954;28;20543;-73
2023/08/29 11:25:33;;;;;;;4.15;1.25;;;18.50;99.90;;;;;;5022776;28;20048;-72
2023/08/29 11:28:19;;;;;;;3.38;1.30;;;18.60;99.90;;;;;;5015804;28;20038;-73
2023/08/29 11:31:05;;;;;;;6.03;1.40;;;18.70;99.90;;;;;;5017367;28;20141;-72
2023/08/29 11:33:52;;;;;;;4.93;1.40;;;18.50;99.90;;;;;;5045755;28;20137;-73
2023/08/29 11:36:38;;;;;;;3.53;1.30;;;18.50;99.90;;;;;;5006137;28;20075;-73
2023/08/29 11:39:25;;;;;;;3.35;1.50;;;18.50;99.90;;;;;;5023028;28;20400;-72
2023/08/29 11:42:10;;;;;;;5.32;1.52;;;18.50;99.90;;;;;;5046343;28;20426;-73
2023/08/29 11:44:57;;;;;;;11.45;1.65;;;18.50;99.90;;;;;;5016870;28;20043;-73
2023/08/29 11:47:43;;;;;;;5.00;1.25;;;18.40;99.90;;;;;;5031281;28;20033;-73
2023/08/29 11:50:31;;;;;;;3.03;1.40;;;18.40;99.90;;;;;;5036069;28;20102;-72
2023/08/29 11:53:20;;;;;;;;;;;18.50;99.90;;;;;;5022495;28;20126;-72
2023/08/29 11:56:09;;;;;;;3.72;1.13;;;18.50;99.90;;;;;;5021563;28;19913;-72
2023/08/29 11:59:00;;;;;;;3.95;1.20;;;18.70;99.90;;;;;;5036632;28;20038;-73
2023/08/29 12:01:46;;;;;;;2.53;1.20;;;18.70;99.90;;;;;;5018847;28;20033;-72
2023/08/29 12:04:32;;;;;;;3.45;1.10;;;18.90;99.90;;;;;;5001548;28;20037;-72
2023/08/29 12:07:18;;;;;;;5.00;1.30;;;19.10;99.90;;;;;;5028298;28;20147;-73
2023/08/29 12:10:08;;;;;;;5.57;1.40;;;19.20;99.90;;;;;;5028860;28;20046;-72
2023/08/29 12:12:55;;;;;;;3.70;1.30;;;19.40;99.90;;;;;;5031404;28;20106;-72
2023/08/29 12:15:41;;;;;;;3.03;1.10;;;19.20;99.90;;;;;;5025099;28;20076;-72
2023/08/29 12:18:27;;;;;;;4.18;1.27;;;19.20;99.90;;;;;;5014019;28;20049;-73
2023/08/29 12:21:17;;;;;;;3.20;1.23;;;19.40;99.90;;;;;;5048660;28;21352;-72
2023/08/29 12:24:13;;;;;;;4.35;1.33;;;19.70;99.90;;;;;;5029698;28;20037;-72
2023/08/29 12:26:59;;;;;;;3.03;1.10;;;19.90;99.90;;;;;;5034883;28;20567;-73
2023/08/29 12:29:45;;;;;;;5.43;1.33;;;19.80;99.90;;;;;;5052622;28;20060;-72
2023/08/29 12:32:31;;;;;;;2.95;1.20;;;19.50;99.90;;;;;;5053703;28;20618;-73
2023/08/29 12:35:18;;;;;;;3.80;1.20;;;19.50;99.90;;;;;;5009795;28;20052;-72
2023/08/29 12:38:04;;;;;;;1.92;1.20;;;19.90;99.90;;;;;;5024063;28;20048;-72
2023/08/29 12:40:50;;;;;;;2.05;1.00;;;20.20;99.90;;;;;;5018356;28;20052;-72
2023/08/29 12:43:36;;;;;;;5.18;1.05;;;20.40;99.90;;;;;;5026022;28;20359;-74
2023/08/29 12:46:22;;;;;;;2.95;0.90;;;20.70;99.90;;;;;;5025177;28;20152;-72
2023/08/29 12:49:08;;;;;;;2.88;1.00;;;20.90;99.90;;;;;;5022988;28;20418;-72
2023/08/29 12:51:55;;;;;;;2.03;0.90;;;20.90;99.90;;;;;;5014297;28;20099;-73
2023/08/29 12:54:43;;;;;;;4.85;1.10;;;21.00;99.50;;;;;;5037545;28;20041;-75
2023/08/29 12:57:29;;;;;;;1.35;1.00;;;20.80;99.80;;;;;;5033457;28;20095;-74
2023/08/29 13:00:18;;;;;;;4.75;1.20;;;20.60;99.90;;;;;;5021134;28;20064;-72
2023/08/29 13:03:04;;;;;;;2.15;1.05;;;20.50;99.90;;;;;;5028211;28;20041;-75
2023/08/29 13:05:51;;;;;;;2.38;0.90;;;20.50;99.80;;;;;;5042589;28;20143;-76
2023/08/29 13:08:37;;;;;;;4.07;1.10;;;20.30;99.60;;;;;;5039367;28;20069;-72
2023/08/29 13:11:23;;;;;;;4.53;1.15;;;20.10;99.90;;;;;;5029169;28;20037;-72
2023/08/29 13:14:09;;;;;;;3.70;1.55;;;19.90;99.90;;;;;;5041515;28;20052;-73
2023/08/29 13:16:55;;;;;;;3.20;0.90;;;20.00;99.90;;;;;;5007972;28;20493;-72
2023/08/29 13:19:41;;;;;;;1.80;0.90;;;19.80;99.90;;;;;;5024456;28;20110;-72
2023/08/29 13:22:27;;;;;;;2.67;1.13;;;19.60;99.90;;;;;;5034627;28;20052;-73
2023/08/29 13:25:15;;;;;;;3.30;1.00;;;19.50;99.90;;;;;;5018348;28;20612;-73
2023/08/29 13:28:01;;;;;;;3.83;0.85;;;19.60;99.90;;;;;;5032430;28;20686;-73
2023/08/29 13:30:46;;;;;;;3.53;1.08;;;19.70;99.90;;;;;;5014873;28;20067;-73
2023/08/29 13:33:32;;;;;;;4.90;0.90;;;19.70;99.90;;;;;;5025003;28;20533;-72
2023/08/29 13:36:19;;;;;;;2.22;0.80;;;20.20;99.60;;;;;;5022796;28;20181;-73
2023/08/29 13:39:07;;;;;;;2.25;1.33;;;20.50;97.80;;;;;;5013265;28;20099;-72
2023/08/29 13:41:52;;;;;;;2.77;0.90;;;20.30;96.90;;;;;;5019623;28;20120;-73
2023/08/29 13:44:38;;;;;;;2.17;0.77;;;20.20;97.90;;;;;;5024788;28;20611;-72
2023/08/29 13:47:24;;;;;;;3.15;0.88;;;20.60;98.70;;;;;;5017562;28;20072;-72
2023/08/29 13:50:10;;;;;;;2.55;0.90;;;20.60;95.80;;;;;;5037077;28;20141;-72
2023/08/29 13:52:58;;;;;;;3.10;0.90;;;20.60;97.00;;;;;;5037229;28;20037;-72
2023/08/29 13:55:44;;;;;;;2.50;0.80;;;20.50;96.80;;;;;;5008143;28;20136;-73
2023/08/29 13:58:30;;;;;;;1.80;0.90;;;20.70;97.60;;;;;;5014873;28;20128;-73
2023/08/29 14:01:15;;;;;;;2.75;0.90;;;20.80;96.70;;;;;;5020327;28;20076;-73
2023/08/29 14:04:02;;;;;;;1.90;0.80;;;20.90;97.50;;;;;;5034632;28;20041;-72
2023/08/29 14:06:47;;;;;;;1.92;0.93;;;21.10;96.90;;;;;;5025292;28;20563;-73
2023/08/29 14:09:34;;;;;;;3.45;0.80;;;21.30;97.10;;;;;;5033369;28;20242;-73
2023/08/29 14:12:20;;;;;;;3.22;1.20;;;21.70;97.40;;;;;;5032661;28;20396;-74
2023/08/29 14:15:06;;;;;;;1.73;0.85;;;21.60;97.80;;;;;;5049228;28;20458;-73
2023/08/29 14:17:52;;;;;;;2.22;0.80;;;21.50;97.10;;;;;;5030072;28;20052;-73
2023/08/29 14:20:44;;;;;;;2.72;0.90;;;21.60;97.20;;;;;;5022774;28;20140;-73
2023/08/29 14:23:29;;;;;;;2.90;1.13;;;21.40;97.40;;;;;;5030843;28;20041;-73
2023/08/29 14:26:15;;;;;;;2.60;0.93;;;21.50;97.50;;;;;;5038417;28;20048;-73
2023/08/29 14:29:02;;;;;;;2.63;0.90;;;21.30;97.10;;;;;;5040708;28;20048;-72